Flight Track Log - Related Links

Times and Time Zones

All times are in EDT time to prevent confusion due to time zone crossing. See the JZA8474 flight status page for this flight to view local times or setup timezone preferences in your user account.

Time Position Orientation Groundspeed Altitude Reporting Facility
EDT Latitude Longitude Course Direction KTS MPH feet Rate Location/Type
Mon 02:54:00 PM 49.6497 -117.3275 36° Northeast  Level FlightAware Approximate
Mon 02:55:00 PM 49.7063 -117.2638 36° Northeast  Level FlightAware Approximate
Mon 02:56:00 PM 49.7624 -117.1991 37° Northeast  Level FlightAware Approximate
Mon 02:56:46 PM 49.5167 -117.3333 37° Northeast 170 196 11,300  Level Edmonton Center
Mon 02:57:00 PM 49.8181 -117.1334 37° Northeast  Level FlightAware Approximate
Mon 02:57:46 PM 49.5500 -117.2500 58° Northeast 170 196 12,500  Level Edmonton Center
Mon 02:58:00 PM 49.8737 -117.0676 37° Northeast  Level FlightAware Approximate
Mon 02:58:46 PM 49.5833 -117.2167 33° Northeast 170 196 13,500  Level Edmonton Center
Mon 02:59:00 PM 49.9289 -117.0008 40° Northeast  Level FlightAware Approximate
Mon 02:59:46 PM 49.6000 -117.1333 73° East 180 207 14,600  Level Edmonton Center
Mon 03:00:00 PM 49.9827 -116.9311 40° Northeast  Level FlightAware Approximate
Mon 03:00:46 PM 49.6500 -117.1000 23° Northeast 180 207 15,500  Level Edmonton Center
Mon 03:01:00 PM 50.0364 -116.8613 40° Northeast  Level FlightAware Approximate
Mon 03:01:46 PM 49.6833 -117.0333 52° Northeast 190 219 16,400  Level Edmonton Center
Mon 03:02:00 PM 50.0903 -116.7918 37° Northeast  Level FlightAware Approximate
Mon 03:02:46 PM 49.7167 -116.9833 44° Northeast 190 219 17,400  Level Edmonton Center
Mon 03:03:46 PM 49.7500 -116.9167 52° Northeast 190 219 18,000 750 Climbing Edmonton Center
Mon 03:04:46 PM 49.8000 -116.8500 41° Northeast 190 219 18,900 500 Climbing Edmonton Center
Mon 03:05:46 PM 49.8333 -116.7833 52° Northeast 200 230 19,000 50 Climbing Edmonton Center
Mon 03:06:46 PM 49.8833 -116.7167 41° Northeast 230 265 19,000  Level Edmonton Center
Mon 03:07:46 PM 49.9167 -116.6500 52° Northeast 250 288 19,000  Level Edmonton Center
Mon 03:08:46 PM 49.9667 -116.5500 52° Northeast 260 299 19,000  Level Edmonton Center
Mon 03:09:46 PM 50.0167 -116.4667 47° Northeast 270 311 19,000  Level Edmonton Center
Mon 03:10:46 PM 50.0667 -116.3667 52° Northeast 270 311 19,000  Level Edmonton Center
Mon 03:11:46 PM 50.1167 -116.3000 41° Northeast 260 299 19,000  Level Edmonton Center
Mon 03:12:46 PM 50.1667 -116.2000 52° Northeast 270 311 19,000  Level Edmonton Center
Mon 03:13:46 PM 50.2167 -116.1167 47° Northeast 270 311 19,000  Level Edmonton Center
Mon 03:14:46 PM 50.2667 -116.0167 52° Northeast 260 299 19,000  Level Edmonton Center
Mon 03:15:46 PM 50.3167 -115.9500 40° Northeast 270 311 19,000  Level Edmonton Center
Mon 03:16:46 PM 50.3667 -115.8500 52° Northeast 270 311 19,000  Level Edmonton Center
Mon 03:17:46 PM 50.4167 -115.7667 47° Northeast 270 311 19,000  Level Edmonton Center
Mon 03:18:46 PM 50.4667 -115.6667 52° Northeast 270 311 19,000  Level Edmonton Center
Mon 03:19:46 PM 50.5167 -115.5667 52° Northeast 270 311 19,000  Level Edmonton Center
Mon 03:20:46 PM 50.5667 -115.4833 47° Northeast 270 311 19,000  Level Edmonton Center
Mon 03:21:46 PM 50.6000 -115.4000 58° Northeast 270 311 19,000  Level Edmonton Center
Mon 03:22:46 PM 50.6667 -115.3167 38° Northeast 270 311 19,000  Level Edmonton Center
Mon 03:23:46 PM 50.7167 -115.2167 52° Northeast 270 311 19,000 -250 Level Edmonton Center
Mon 03:24:46 PM 50.7667 -115.1167 52° Northeast 270 311 18,500 -950 Descending Edmonton Center
Mon 03:25:46 PM 50.8167 -115.0333 46° Northeast 290 334 17,100 -1,600 Descending Edmonton Center
Mon 03:26:46 PM 50.8500 -114.9000 68° East 300 345 15,300 -1,600 Descending Edmonton Center
Mon 03:27:46 PM 50.8833 -114.7667 68° East 300 345 13,900 -1,200 Descending Edmonton Center
Mon 03:28:46 PM 50.9167 -114.6667 62° Northeast 270 311 12,900 -1,150 Descending Edmonton Center
Mon 03:29:46 PM 50.9500 -114.6000 52° Northeast 270 311 11,600 -1,200 Descending Edmonton Center
Mon 03:30:46 PM 51.0333 -114.5000 37° Northeast 270 311 10,500 -1,200 Descending Edmonton Center
Mon 03:31:46 PM 51.0833 -114.4333 40° Northeast 270 311 9,200 -1,200 Descending Edmonton Center
Mon 03:32:46 PM 51.1500 -114.3667 32° Northeast 270 311 8,100 -1,200 Descending Edmonton Center
Mon 03:33:46 PM 51.1667 -114.3000 68° East 230 265 6,800 -1,300 Descending Edmonton Center
Mon 03:34:46 PM 51.1333 -114.1833 114° Southeast 220 253 5,500 -950 Descending Edmonton Center
Mon 03:35:46 PM 51.1167 -114.1167 112° Southeast 160 184 4,900 -900 Descending Edmonton Center
Mon 03:36:46 PM 51.1000 -114.0667 118° Southeast 130 150 3,700 -700 Descending Edmonton Center
Mon 03:37:46 PM 51.0833 -114.0333 129° Southeast 130 150 3,500 -200 Descending Edmonton Center

Login

Don't have an account? Register now (free) for customized features, flight alerts, and more!